TimeEDT,TemperatureF,Dew PointF,Humidity,Sea Level PressureIn,VisibilityMPH,Wind Direction,Wind SpeedMPH,Gust SpeedMPH,PrecipitationIn,Events,Conditions,WindDirDegrees,DateUTC
12:56 AM,54.0,51.1,90,29.83,10.0,Calm,Calm,-,N/A,,Clear,0,2013-06-13 04:56:00
1:56 AM,53.1,51.1,93,29.83,10.0,Calm,Calm,-,N/A,,Clear,0,2013-06-13 05:56:00
2:56 AM,50.0,48.9,96,29.83,10.0,Calm,Calm,-,N/A,,Clear,0,2013-06-13 06:56:00
3:56 AM,50.0,48.9,96,29.82,10.0,Calm,Calm,-,N/A,,Clear,0,2013-06-13 07:56:00
4:56 AM,48.0,48.0,100,29.83,10.0,Calm,Calm,-,N/A,,Clear,0,2013-06-13 08:56:00
5:56 AM,50.0,48.9,96,29.84,10.0,Calm,Calm,-,N/A,,Clear,0,2013-06-13 09:56:00
6:56 AM,55.9,52.0,87,29.85,10.0,SW,4.6,-,N/A,,Clear,220,2013-06-13 10:56:00
7:56 AM,61.0,54.0,78,29.83,10.0,SSW,3.5,-,N/A,,Clear,210,2013-06-13 11:56:00
8:56 AM,64.0,54.0,70,29.82,10.0,Calm,Calm,-,N/A,,Clear,0,2013-06-13 12:56:00
9:56 AM,64.9,54.0,68,29.81,10.0,Calm,Calm,-,N/A,,Partly Cloudy,0,2013-06-13 13:56:00
10:56 AM,66.0,55.0,68,29.81,10.0,South,4.6,-,0.01,Rain,Light Rain,170,2013-06-13 14:56:00
11:56 AM,64.0,55.0,73,29.81,10.0,SW,5.8,-,0.00,,Overcast,220,2013-06-13 15:56:00
12:56 PM,60.1,55.0,83,29.83,10.0,SW,8.1,-,0.01,Rain,Light Rain,230,2013-06-13 16:56:00
1:56 PM,59.0,55.0,87,29.77,5.0,SSE,3.5,-,0.05,Rain,Rain,160,2013-06-13 17:56:00
2:32 PM,57.2,55.4,94,29.74,6.0,Calm,Calm,-,0.06,Rain,Light Rain,0,2013-06-13 18:32:00
2:56 PM,57.0,55.0,93,29.79,3.0,SW,3.5,-,0.10,Rain,Rain,220,2013-06-13 18:56:00
3:56 PM,57.0,57.0,100,29.80,3.0,South,4.6,-,0.12,Rain,Light Rain,180,2013-06-13 19:56:00
4:03 PM,57.2,57.2,100,29.76,4.0,South,3.5,-,0.00,Rain,Light Rain,170,2013-06-13 20:03:00
4:56 PM,55.9,55.0,97,29.77,9.0,ESE,6.9,-,0.03,Rain,Light Rain,120,2013-06-13 20:56:00
5:56 PM,55.9,55.0,97,29.75,10.0,SSE,5.8,-,0.00,,Overcast,150,2013-06-13 21:56:00
6:28 PM,55.4,55.4,100,29.72,2.0,Calm,Calm,-,0.02,,Light Drizzle,0,2013-06-13 22:28:00
6:56 PM,55.0,55.0,100,29.77,2.0,Calm,Calm,-,0.04,,Light Drizzle,0,2013-06-13 22:56:00
7:03 PM,53.6,53.6,100,29.72,5.0,ESE,4.6,-,0.01,,Light Drizzle,120,2013-06-13 23:03:00
7:56 PM,54.0,54.0,100,29.77,6.0,East,5.8,-,0.03,Rain,Light Rain,90,2013-06-13 23:56:00
8:56 PM,53.1,-9999,N/A,29.75,6.0,NE,4.6,-,0.03,Rain,Light Rain,50,2013-06-14 00:56:00
9:11 PM,53.6,53.6,100,29.72,6.0,NE,3.5,-,0.01,Rain,Light Rain,50,2013-06-14 01:11:00
9:54 PM,53.6,53.6,100,29.72,5.0,ENE,6.9,-,0.03,Rain,Light Rain,60,2013-06-14 01:54:00
9:56 PM,53.1,53.1,100,29.76,5.0,ENE,6.9,-,0.03,Rain,Light Rain,60,2013-06-14 01:56:00
10:52 PM,53.6,-9999,N/A,29.70,5.0,ENE,10.4,-,0.09,Rain,Rain,60,2013-06-14 02:52:00
10:56 PM,53.1,-9999,N/A,29.74,5.0,ENE,8.1,-,0.10,Rain,Rain,60,2013-06-14 02:56:00
11:16 PM,51.8,-9999,N/A,29.69,5.0,ENE,6.9,-,0.04,Rain,Rain,60,2013-06-14 03:16:00
11:31 PM,51.8,-9999,N/A,29.68,7.0,NE,9.2,-,0.06,Rain,Light Rain,50,2013-06-14 03:31:00
11:48 PM,51.8,-9999,N/A,29.68,5.0,NNE,6.9,-,0.08,Rain,Rain,30,2013-06-14 03:48:00
11:50 PM,51.8,-9999,N/A,29.68,5.0,NNE,5.8,-,0.09,Rain,Rain,30,2013-06-14 03:50:00
11:56 PM,52.0,-9999,N/A,29.72,6.0,NNE,6.9,-,0.10,Rain,Rain,30,2013-06-14 03:56:00